Time;durP1;ratioP1;P1;durP2;ratioP2;P2;SDS_P1;SDS_P2;PMS_P1;PMS_P2;Temp;Humidity;BMP_temperature;BMP_pressure;BME280_temperature;BME280_humidity;BME280_pressure;Samples;Min_cycle;Max_cycle;Signal;HPM_P1;HPM_P2
2022/12/15 00:40:12;;;;;;;24.25;17.75;;;;;;;-5.73;92.92;99219.72;5101467;28;20220;-64
2022/12/15 00:42:39;;;;;;;25.05;15.13;;;;;;;-5.73;93.09;99215.38;5100876;28;20276;-65
2022/12/15 00:45:07;;;;;;;28.00;15.45;;;;;;;-5.69;93.37;99216.94;5101913;28;20240;-64
2022/12/15 00:47:32;;;;;;;23.25;15.90;;;;;;;-5.70;93.47;99211.81;5100416;28;20233;-64
2022/12/15 01:20:17;;;;;;;34.35;17.45;;;;;;;-5.76;91.81;99235.50;5100328;28;20252;-65
2022/12/15 01:22:44;;;;;;;26.52;16.25;;;;;;;-5.83;91.75;99234.91;5100115;28;20213;-66
2022/12/15 01:25:12;;;;;;;22.23;15.52;;;;;;;-5.93;91.71;99241.38;5100723;28;20213;-65
2022/12/15 01:27:39;;;;;;;24.25;15.43;;;;;;;-6.06;91.75;99239.31;5090234;28;20201;-66
2022/12/15 01:30:08;;;;;;;25.25;16.65;;;;;;;-6.07;91.86;99236.75;5101419;28;20682;-65
2022/12/15 01:32:35;;;;;;;23.38;16.27;;;;;;;-6.07;92.05;99242.81;5101681;28;20218;-66
2022/12/15 01:35:01;;;;;;;25.70;15.75;;;;;;;-5.92;92.63;99241.31;5105368;28;20204;-66
2022/12/15 01:37:28;;;;;;;25.85;16.70;;;;;;;-5.76;92.31;99245.91;5100039;28;20263;-66
2022/12/15 01:42:40;;;;;;;20.90;16.65;;;;;;;-5.88;91.87;99252.47;5084294;28;20293;-66
2022/12/15 01:45:54;;;;;;;25.92;16.13;;;;;;;-5.84;91.68;99258.38;5071011;28;20222;-65
2022/12/15 01:48:29;;;;;;;22.58;16.92;;;;;;;-5.83;91.60;99266.13;5012439;28;20291;-67
2022/12/15 01:51:01;;;;;;;29.38;16.67;;;;;;;-5.77;91.58;99260.66;5070319;28;20256;-67
2022/12/15 01:53:28;;;;;;;24.02;16.23;;;;;;;-5.69;91.62;99257.78;5083672;28;20202;-67
2022/12/15 01:55:56;;;;;;;30.25;16.33;;;;;;;-5.51;91.57;99266.56;5084099;28;20237;-67
2022/12/15 01:58:24;;;;;;;23.73;16.63;;;;;;;-5.49;91.32;99262.97;5084587;28;20214;-66
2022/12/15 02:00:50;;;;;;;23.95;16.80;;;;;;;-5.51;91.15;99262.19;5084057;28;20909;-67
2022/12/15 02:03:17;;;;;;;24.10;17.52;;;;;;;-5.34;90.42;99255.44;5083663;28;20237;-66
2022/12/15 02:05:44;;;;;;;25.48;18.63;;;;;;;-5.17;89.24;99263.38;5083590;28;20225;-67
2022/12/15 02:08:11;;;;;;;28.33;18.48;;;;;;;-5.11;88.95;99264.88;5082782;28;20647;-65
2022/12/15 02:10:53;;;;;;;31.48;17.90;;;;;;;-5.13;88.95;99266.72;5083769;28;20285;-65
2022/12/15 02:13:23;;;;;;;30.80;19.15;;;;;;;-5.17;89.11;99278.19;5084144;28;20266;-65
2022/12/15 02:15:56;;;;;;;22.90;17.20;;;;;;;-5.11;89.23;99280.50;5071756;28;20297;-65
2022/12/15 02:18:27;;;;;;;30.25;17.58;;;;;;;-5.07;89.22;99279.44;5083887;28;20269;-66
2022/12/15 02:20:59;;;;;;;27.38;18.95;;;;;;;-5.08;89.26;99288.19;5084207;28;20276;-67
2022/12/15 02:23:45;;;;;;;25.48;16.88;;;;;;;-5.19;89.48;99293.00;5083525;28;20213;-66
2022/12/15 02:26:33;;;;;;;23.63;16.60;;;;;;;-5.18;89.81;99286.91;5082910;28;20285;-64
2022/12/15 02:29:12;;;;;;;27.05;17.75;;;;;;;-5.26;89.93;99282.03;5072693;28;20209;-64
2022/12/15 02:31:50;;;;;;;25.95;17.80;;;;;;;-5.28;90.22;99290.81;5083450;28;20233;-64
2022/12/15 02:34:23;;;;;;;25.73;17.75;;;;;;;-5.31;90.40;99274.41;5077470;28;20304;-64
2022/12/15 02:36:54;;;;;;;26.15;17.35;;;;;;;-5.25;90.24;99281.09;5082434;28;20324;-65
2022/12/15 02:39:20;;;;;;;24.65;17.83;;;;;;;-5.20;89.79;99280.91;5101809;28;20237;-64
2022/12/15 02:41:47;;;;;;;24.80;14.95;;;;;;;-5.22;89.43;99294.00;5103544;28;20252;-65
2022/12/15 02:44:17;;;;;;;25.13;17.15;;;;;;;-5.33;89.29;99291.84;5103495;28;20190;-65
2022/12/15 02:46:59;;;;;;;32.83;17.10;;;;;;;-5.33;89.29;99291.84;5102991;28;20312;-65
2022/12/15 02:49:31;;;;;;;25.75;16.27;;;;;;;-5.25;89.10;99294.13;5102666;28;20401;-65
2022/12/15 02:52:05;;;;;;;28.40;15.77;;;;;;;-5.32;89.49;99283.09;5102457;28;20283;-65
2022/12/15 02:54:47;;;;;;;26.20;16.65;;;;;;;-5.34;89.97;99286.72;5103957;28;20197;-65
2022/12/15 02:57:18;;;;;;;24.05;16.77;;;;;;;-5.33;90.42;99273.63;5090939;28;20229;-65
2022/12/15 02:59:54;;;;;;;30.35;16.70;;;;;;;-5.35;90.55;99285.00;5102885;28;20207;-65
2022/12/15 03:02:23;;;;;;;26.33;18.02;;;;;;;-5.33;90.52;99296.19;5102448;28;20228;-66
2022/12/15 03:04:50;;;;;;;24.75;16.25;;;;;;;-5.33;90.37;99310.09;5103138;28;20229;-67
2022/12/15 03:07:16;;;;;;;28.30;18.65;;;;;;;-5.33;90.05;99309.22;5101661;28;20240;-67
2022/12/15 03:09:43;;;;;;;26.92;18.42;;;;;;;-5.32;90.03;99305.72;5103513;28;20201;-67
2022/12/15 03:12:10;;;;;;;28.08;16.73;;;;;;;-5.27;90.20;99315.97;5102972;28;20312;-67
2022/12/15 03:14:36;;;;;;;24.73;17.52;;;;;;;-5.27;90.10;99315.97;5103153;28;20198;-67
2022/12/15 03:17:06;;;;;;;29.30;17.75;;;;;;;-5.32;89.96;99313.53;5102423;28;20229;-67
2022/12/15 03:19:34;;;;;;;23.95;15.80;;;;;;;-5.29;89.84;99313.41;5103013;28;20220;-66
2022/12/15 03:22:00;;;;;;;28.20;17.95;;;;;;;-5.29;89.81;99305.59;5101655;28;20317;-67
2022/12/15 03:24:27;;;;;;;25.52;17.13;;;;;;;-5.33;89.55;99310.09;5103678;28;20225;-67
2022/12/15 03:26:53;;;;;;;24.65;16.42;;;;;;;-5.36;89.47;99304.16;5102243;28;20272;-67
2022/12/15 03:29:20;;;;;;;24.85;15.90;;;;;;;-5.33;89.52;99306.63;5103016;28;20213;-67
2022/12/15 03:31:47;;;;;;;26.85;17.35;;;;;;;-5.31;89.16;99313.47;5102855;28;20271;-67
2022/12/15 03:34:14;;;;;;;23.55;16.20;;;;;;;-5.32;89.18;99319.59;5102615;28;20204;-67
2022/12/15 03:36:42;;;;;;;24.08;15.07;;;;;;;-5.42;89.64;99338.25;5101629;28;20248;-65
2022/12/15 03:39:09;;;;;;;28.42;16.00;;;;;;;-5.41;89.86;99327.78;5100989;28;20258;-65
2022/12/15 03:41:36;;;;;;;26.58;16.50;;;;;;;-5.39;90.05;99331.16;5102113;28;20253;-65
2022/12/15 03:44:02;;;;;;;28.50;16.90;;;;;;;-5.36;90.29;99333.66;5102357;28;20246;-65
2022/12/15 03:46:29;;;;;;;28.95;17.17;;;;;;;-5.34;90.32;99339.66;5101503;28;20290;-65
2022/12/15 03:48:55;;;;;;;27.73;16.98;;;;;;;-5.37;90.56;99331.09;5100820;28;20239;-65
2022/12/15 03:51:22;;;;;;;27.35;16.33;;;;;;;-5.38;90.96;99348.50;5101785;28;20245;-65
2022/12/15 03:53:50;;;;;;;21.85;16.15;;;;;;;-5.31;91.29;99342.13;5102178;28;20198;-66
2022/12/15 03:56:17;;;;;;;27.77;17.27;;;;;;;-5.35;91.63;99340.53;5101122;28;20220;-65
2022/12/15 03:58:44;;;;;;;23.77;16.35;;;;;;;-5.40;92.05;99345.13;5101455;28;20327;-65
2022/12/15 04:01:11;;;;;;;27.02;16.33;;;;;;;-5.36;92.06;99340.63;5101368;28;20734;-65
2022/12/15 04:03:38;;;;;;;25.33;16.70;;;;;;;-5.31;91.77;99344.75;5101938;28;20228;-65
2022/12/15 04:06:05;;;;;;;24.38;17.70;;;;;;;-5.32;91.60;99337.81;5102196;28;21028;-66
2022/12/15 04:08:32;;;;;;;26.40;17.63;;;;;;;-5.32;91.54;99345.63;5101897;28;20213;-65
2022/12/15 04:10:59;;;;;;;26.88;17.92;;;;;;;-5.33;91.45;99345.69;5101731;28;20682;-66
2022/12/15 04:13:26;;;;;;;26.27;17.05;;;;;;;-5.21;91.31;99342.59;5102078;28;20284;-65
2022/12/15 04:15:53;;;;;;;24.92;17.58;;;;;;;-5.23;91.09;99343.56;5100778;28;20256;-66
2022/12/15 04:18:19;;;;;;;27.88;16.45;;;;;;;-5.37;90.88;99331.94;5102130;28;20237;-66
2022/12/15 04:20:46;;;;;;;29.98;16.75;;;;;;;-5.32;90.88;99335.22;5100955;28;20257;-65
2022/12/15 04:23:13;;;;;;;21.90;15.85;;;;;;;-5.23;90.21;99339.19;5101054;28;20272;-66
2022/12/15 05:31:50;;;;;;;16.85;14.50;;;;;;;-5.85;89.77;99359.03;5099311;28;20471;-67
2022/12/15 05:34:21;;;;;;;21.75;16.45;;;;;;;-5.68;90.07;99360.97;5090445;28;20206;-65
2022/12/15 05:36:48;;;;;;;25.23;15.90;;;;;;;-5.71;90.05;99363.69;5094062;28;20732;-65
2022/12/15 05:39:15;;;;;;;26.15;17.20;;;;;;;-5.72;90.29;99373.28;5087349;28;20237;-65
2022/12/15 05:41:42;;;;;;;21.30;16.50;;;;;;;-5.73;90.19;99374.19;5087959;28;20230;-65
2022/12/15 05:44:09;;;;;;;23.13;15.45;;;;;;;-5.36;89.23;99377.09;5082465;28;20202;-65
2022/12/15 05:46:35;;;;;;;29.35;16.55;;;;;;;-5.46;88.60;99378.38;5091953;28;20256;-65
2022/12/15 05:49:03;;;;;;;27.00;16.45;;;;;;;-5.60;88.37;99384.97;5102959;28;20244;-65
2022/12/15 05:51:31;;;;;;;26.92;16.40;;;;;;;-5.88;88.74;99390.41;5101901;28;20255;-65
2022/12/15 05:53:57;;;;;;;25.33;15.98;;;;;;;-5.88;88.88;99399.06;5098719;28;20242;-65
2022/12/15 05:56:25;;;;;;;25.80;17.55;;;;;;;-6.01;89.27;99408.25;5085287;28;20741;-65
2022/12/15 05:58:52;;;;;;;22.90;16.05;;;;;;;-6.10;89.44;99406.84;5084140;28;20248;-65
2022/12/15 06:01:19;;;;;;;24.85;15.68;;;;;;;-6.13;89.90;99409.53;5091430;28;20237;-65
2022/12/15 06:03:46;;;;;;;23.50;16.80;;;;;;;-6.11;90.05;99410.38;5081917;28;20241;-65
2022/12/15 06:06:13;;;;;;;22.02;14.90;;;;;;;-5.97;90.31;99420.25;5083736;28;20485;-68
2022/12/15 06:08:42;;;;;;;26.55;16.13;;;;;;;-5.72;89.75;99419.31;5083156;28;20220;-67
2022/12/15 06:11:11;;;;;;;30.42;17.95;;;;;;;-5.72;89.51;99425.34;5082914;28;20742;-66
2022/12/15 06:13:37;;;;;;;24.08;15.90;;;;;;;-5.59;89.99;99424.88;5096229;28;20269;-66
2022/12/15 06:16:06;;;;;;;24.73;18.13;;;;;;;-5.37;90.04;99423.13;5102852;28;20256;-66
2022/12/15 06:18:34;;;;;;;25.67;17.48;;;;;;;-5.39;89.87;99431.94;5100725;28;20240;-65
2022/12/15 06:21:03;;;;;;;26.92;18.98;;;;;;;-5.45;90.18;99426.94;5100135;28;20249;-66
2022/12/15 06:23:31;;;;;;;25.15;17.13;;;;;;;-5.34;90.23;99433.44;5102251;28;20273;-66
2022/12/15 06:26:00;;;;;;;24.83;17.63;;;;;;;-5.34;89.74;99424.78;5101128;28;20336;-66
2022/12/15 06:28:26;;;;;;;27.98;16.75;;;;;;;-5.24;89.94;99431.31;5103532;28;20224;-66
2022/12/15 06:30:54;;;;;;;27.30;17.48;;;;;;;-5.26;90.23;99438.34;5103093;28;20663;-66
2022/12/15 06:33:22;;;;;;;32.03;19.02;;;;;;;-5.19;90.83;99445.00;5091436;28;20216;-66
2022/12/15 06:35:49;;;;;;;27.92;19.35;;;;;;;-5.25;91.02;99434.81;5087565;28;20229;-66
2022/12/15 06:38:16;;;;;;;27.33;17.00;;;;;;;-5.17;91.14;99442.34;5101888;28;20237;-65
2022/12/15 06:40:43;;;;;;;27.63;18.70;;;;;;;-5.20;91.32;99447.69;5088788;28;20464;-65
2022/12/15 06:43:11;;;;;;;26.00;17.20;;;;;;;-5.14;91.31;99430.03;5083872;28;20271;-66
2022/12/15 06:45:37;;;;;;;25.25;16.90;;;;;;;-5.05;91.11;99441.84;5102075;28;20260;-65
2022/12/15 06:48:05;;;;;;;30.05;19.13;;;;;;;-5.08;91.09;99443.75;5103119;28;20198;-65
2022/12/15 06:50:31;;;;;;;30.27;19.83;;;;;;;-5.07;91.14;99448.03;5102516;28;21014;-66
2022/12/15 06:52:59;;;;;;;26.70;18.92;;;;;;;-5.07;90.71;99446.25;5089777;28;20287;-66
2022/12/15 06:55:25;;;;;;;30.92;19.27;;;;;;;-5.19;91.19;99455.44;5095081;28;20197;-65
2022/12/15 06:57:52;;;;;;;31.25;19.30;;;;;;;-5.14;91.24;99444.81;5103097;28;20198;-66
2022/12/15 07:00:20;;;;;;;30.40;20.90;;;;;;;-5.05;91.16;99446.19;5102207;28;20237;-65
2022/12/15 07:02:47;;;;;;;26.90;17.13;;;;;;;-5.15;91.05;99450.94;5103684;28;20213;-65
2022/12/15 07:05:14;;;;;;;29.73;18.77;;;;;;;-5.15;91.48;99453.56;5102421;28;20205;-66
2022/12/15 07:07:41;;;;;;;33.85;19.27;;;;;;;-5.02;91.41;99465.16;5101879;28;20250;-65
2022/12/15 07:10:09;;;;;;;27.38;19.77;;;;;;;-5.08;91.56;99459.38;5102618;28;20214;-65
2022/12/15 07:12:36;;;;;;;32.25;18.25;;;;;;;-5.06;91.45;99461.00;5102906;28;20194;-66
2022/12/15 07:15:03;;;;;;;33.03;20.23;;;;;;;-5.04;91.34;99453.13;5102423;28;20201;-65
2022/12/15 07:17:31;;;;;;;32.40;21.05;;;;;;;-5.04;91.29;99459.16;5101786;28;20282;-65
2022/12/15 07:19:58;;;;;;;30.00;18.98;;;;;;;-5.05;91.63;99459.22;5082184;28;20234;-66
2022/12/15 07:22:25;;;;;;;31.50;19.85;;;;;;;-4.96;91.30;99466.69;5095566;28;20234;-65
2022/12/15 07:24:52;;;;;;;31.27;22.38;;;;;;;-4.96;91.21;99464.09;5102652;28;20251;-65
2022/12/15 07:27:18;;;;;;;29.83;18.23;;;;;;;-4.94;91.21;99468.31;5092391;28;20230;-65
2022/12/15 07:29:45;;;;;;;25.17;17.73;;;;;;;-4.95;90.91;99473.59;5094354;28;20207;-65
2022/12/15 07:32:12;;;;;;;30.50;20.70;;;;;;;-4.89;90.85;99482.94;5082302;28;20229;-66
2022/12/15 07:34:40;;;;;;;30.15;19.08;;;;;;;-4.87;90.77;99481.97;5082440;28;20195;-66
2022/12/15 07:37:06;;;;;;;34.45;19.80;;;;;;;-4.90;90.85;99482.06;5088379;28;20263;-66
2022/12/15 07:39:33;;;;;;;27.73;19.00;;;;;;;-4.88;90.95;99480.25;5090401;28;20290;-65
2022/12/15 07:42:00;;;;;;;33.03;20.25;;;;;;;-4.79;90.91;99479.03;5087886;28;20248;-66
2022/12/15 07:44:27;;;;;;;26.55;19.23;;;;;;;-4.78;90.50;99486.78;5088747;28;20190;-65
2022/12/15 07:46:54;;;;;;;31.73;20.70;;;;;;;-4.70;90.04;99496.91;5082138;28;20720;-66
2022/12/15 07:49:21;;;;;;;36.22;20.40;;;;;;;-4.72;90.02;99501.34;5086196;28;20240;-66
2022/12/15 07:51:49;;;;;;;30.95;19.80;;;;;;;-4.59;89.93;99509.50;5085057;28;20289;-66
2022/12/15 07:54:16;;;;;;;36.83;21.60;;;;;;;-4.59;89.89;99515.56;5084588;28;20202;-66
2022/12/15 07:56:43;;;;;;;30.67;20.25;;;;;;;-4.40;90.03;99509.59;5083263;28;20226;-66
2022/12/15 07:59:10;;;;;;;33.75;20.25;;;;;;;-4.24;88.66;99517.63;5078653;28;20212;-66
2022/12/15 08:01:36;;;;;;;27.90;20.30;;;;;;;-4.18;87.75;99517.38;5081389;28;20225;-66
2022/12/15 08:04:03;;;;;;;29.83;19.13;;;;;;;-4.14;87.74;99516.31;5089002;28;20263;-66
2022/12/15 08:06:30;;;;;;;30.77;20.90;;;;;;;-4.29;87.45;99516.97;5062373;28;20233;-66
2022/12/15 08:08:59;;;;;;;36.78;21.08;;;;;;;-4.21;87.50;99526.16;5099301;28;20213;-66
2022/12/15 08:11:26;;;;;;;32.20;19.77;;;;;;;-3.93;86.27;99538.03;5094243;28;20236;-66
2022/12/15 08:13:53;;;;;;;32.80;20.83;;;;;;;-3.82;85.86;99541.03;5087249;28;20190;-66
2022/12/15 08:16:20;;;;;;;29.52;19.35;;;;;;;-3.79;84.81;99540.88;5101749;28;20229;-65
2022/12/15 08:18:47;;;;;;;27.27;17.58;;;;;;;-3.90;84.36;99545.75;5100823;28;20205;-65
2022/12/15 08:21:14;;;;;;;26.92;19.92;;;;;;;-3.73;84.31;99541.53;5100578;28;20233;-66
2022/12/15 08:23:41;;;;;;;28.80;19.40;;;;;;;-3.75;83.97;99548.59;5101623;28;20243;-66
2022/12/15 08:26:10;;;;;;;31.58;19.70;;;;;;;-3.71;83.54;99531.88;5100899;28;20265;-66
2022/12/15 08:28:38;;;;;;;30.45;18.85;;;;;;;-3.60;83.46;99534.84;5100777;28;20255;-66
2022/12/15 08:31:06;;;;;;;39.33;19.60;;;;;;;-3.46;82.54;99532.44;5100977;28;20237;-66
2022/12/15 08:33:33;;;;;;;31.25;20.05;;;;;;;-3.04;80.95;99533.16;5101752;28;20190;-66
2022/12/15 08:36:01;;;;;;;32.58;19.17;;;;;;;-2.97;79.53;99525.88;5100071;28;20225;-66
2022/12/15 08:38:28;;;;;;;32.70;20.55;;;;;;;-3.04;79.53;99528.78;5100570;28;20233;-65
2022/12/15 08:40:55;;;;;;;27.58;18.20;;;;;;;-3.01;79.16;99540.03;5100689;28;20238;-66
2022/12/15 08:43:23;;;;;;;35.17;19.77;;;;;;;-2.96;78.81;99538.88;5101149;28;20217;-66
2022/12/15 08:45:50;;;;;;;31.23;19.88;;;;;;;-2.87;78.28;99535.81;5100790;28;20229;-66
2022/12/15 08:48:17;;;;;;;31.15;19.20;;;;;;;-2.42;77.74;99545.91;5101327;28;20194;-66
2022/12/15 08:50:45;;;;;;;29.27;17.88;;;;;;;-2.05;74.80;99533.56;5100030;28;20240;-66
2022/12/15 08:53:12;;;;;;;29.05;19.17;;;;;;;-2.09;73.51;99538.13;5100918;28;20210;-66
2022/12/15 08:55:39;;;;;;;27.17;18.83;;;;;;;-1.71;73.47;99543.16;5100909;28;20229;-66
2022/12/15 08:58:06;;;;;;;26.58;18.92;;;;;;;0.03;68.55;99543.97;5100854;28;20510;-66
2022/12/15 09:00:34;;;;;;;30.20;18.67;;;;;;;1.11;61.09;99543.50;5086158;28;20237;-67
2022/12/15 09:03:01;;;;;;;26.93;17.43;;;;;;;2.12;57.61;99540.41;5086513;28;20556;-66
2022/12/15 09:05:28;;;;;;;24.27;17.27;;;;;;;2.34;55.60;99550.31;5099947;28;20520;-66
2022/12/15 09:07:55;;;;;;;24.20;15.77;;;;;;;1.90;55.66;99555.97;5099744;28;20456;-66
2022/12/15 09:10:23;;;;;;;22.27;15.60;;;;;;;2.69;54.29;99559.38;5100784;28;20455;-67
2022/12/15 09:12:50;;;;;;;22.10;15.63;;;;;;;3.99;51.28;99569.38;5101184;28;20462;-66
2022/12/15 09:15:16;;;;;;;26.47;16.40;;;;;;;4.11;48.54;99560.50;5099520;28;20471;-67
2022/12/15 09:17:45;;;;;;;23.93;15.93;;;;;;;4.88;47.01;99567.84;5101291;28;20469;-67
2022/12/15 09:20:13;;;;;;;21.93;15.30;;;;;;;4.05;47.99;99561.81;5099852;28;20486;-64
2022/12/15 09:22:40;;;;;;;18.80;15.40;;;;;;;4.26;47.81;99571.75;5099387;28;21039;-64
2022/12/15 09:25:07;;;;;;;20.17;15.50;;;;;;;4.86;46.81;99561.78;5100524;28;20909;-64
2022/12/15 09:27:34;;;;;;;20.37;15.20;;;;;;;4.23;47.39;99579.91;5101501;28;20462;-66
2022/12/15 09:30:02;;;;;;;22.40;15.57;;;;;;;5.61;44.95;99571.66;5100295;28;20517;-66
2022/12/15 09:32:29;;;;;;;20.57;14.50;;;;;;;4.85;46.03;99570.72;5100553;28;20471;-66
2022/12/15 09:34:57;;;;;;;22.00;16.20;;;;;;;4.89;46.27;99574.78;5100482;28;20813;-67
2022/12/15 09:37:23;;;;;;;19.90;15.07;;;;;;;5.85;44.26;99586.53;5083558;28;20530;-67
2022/12/15 09:39:50;;;;;;;19.40;14.70;;;;;;;5.09;45.58;99583.81;5075073;28;20448;-66
2022/12/15 09:42:23;;;;;;;23.23;16.23;;;;;;;5.52;45.35;99588.34;5080094;28;20511;-64
2022/12/15 09:44:58;;;;;;;19.90;14.83;;;;;;;5.06;45.58;99586.72;5080356;28;20425;-66
2022/12/15 09:47:31;;;;;;;17.33;13.03;;;;;;;4.82;45.40;99590.31;5079661;28;20507;-66
2022/12/15 09:50:01;;;;;;;22.03;16.03;;;;;;;5.47;45.79;99590.53;5074085;28;21003;-66
2022/12/15 09:52:30;;;;;;;19.00;13.97;;;;;;;5.92;44.01;99592.16;5058950;28;20488;-64
2022/12/15 09:54:57;;;;;;;16.93;13.17;;;;;;;5.40;43.46;99602.56;5080700;28;20432;-64
2022/12/15 09:57:31;;;;;;;18.70;13.50;;;;;;;5.49;43.47;99590.41;5076103;28;20513;-64
2022/12/15 10:00:14;;;;;;;22.40;14.77;;;;;;;4.33;45.97;99592.31;5083420;28;20452;-63
2022/12/15 10:03:13;;;;;;;17.90;13.73;;;;;;;4.06;46.63;99592.63;5083719;28;20492;-63
2022/12/15 10:05:49;;;;;;;23.93;16.13;;;;;;;4.02;46.37;99604.38;5047670;28;20488;-64
2022/12/15 10:08:16;;;;;;;19.80;15.17;;;;;;;4.49;45.30;99601.72;5082135;28;20448;-64
2022/12/15 10:10:47;;;;;;;17.97;11.97;;;;;;;4.64;44.90;99605.00;5083064;28;20460;-64
2022/12/15 10:13:18;;;;;;;20.07;14.00;;;;;;;4.06;45.70;99607.63;5082962;28;20937;-66
2022/12/15 10:15:47;;;;;;;23.03;14.80;;;;;;;3.98;46.11;99607.38;5082217;28;20488;-66
2022/12/15 10:18:19;;;;;;;17.27;13.77;;;;;;;4.11;46.60;99610.78;5080152;28;20442;-67
2022/12/15 10:20:47;;;;;;;24.13;13.63;;;;;;;4.55;44.96;99609.22;5069034;28;20464;-67
2022/12/15 10:23:16;;;;;;;21.90;13.83;;;;;;;4.64;44.73;99605.84;5083366;28;20516;-67
2022/12/15 10:25:47;;;;;;;18.20;13.30;;;;;;;3.99;46.12;99615.16;5082973;28;20456;-66
2022/12/15 10:28:36;;;;;;;20.57;12.40;;;;;;;3.95;45.47;99609.25;5082566;28;20444;-66
2022/12/15 10:31:13;;;;;;;19.13;13.03;;;;;;;5.06;43.54;99600.78;5082696;28;20477;-66
2022/12/15 10:33:44;;;;;;;19.57;14.23;;;;;;;4.56;44.78;99602.94;5083934;28;20432;-67
2022/12/15 10:36:13;;;;;;;19.70;14.40;;;;;;;4.79;44.07;99606.47;5081791;28;20507;-67
2022/12/15 10:38:44;;;;;;;19.10;14.07;;;;;;;4.55;44.10;99611.84;5095417;28;20908;-67
2022/12/15 10:41:11;;;;;;;20.63;14.20;;;;;;;4.51;44.68;99613.91;5103346;28;20474;-67
2022/12/15 10:43:39;;;;;;;20.47;14.07;;;;;;;4.51;44.65;99605.97;5103208;28;20531;-67
2022/12/15 10:46:13;;;;;;;18.07;13.27;;;;;;;4.65;44.34;99607.53;5098962;28;20909;-67
2022/12/15 10:48:40;;;;;;;18.60;14.60;;;;;;;3.62;45.89;99598.56;5082153;28;20562;-67
2022/12/15 10:51:17;;;;;;;23.70;16.13;;;;;;;5.05;43.49;99598.25;5101892;28;20608;-68
2022/12/15 10:53:46;;;;;;;23.30;14.43;;;;;;;4.63;44.17;99600.66;5103289;28;20936;-68
2022/12/15 10:56:19;;;;;;;21.33;15.90;;;;;;;4.51;44.83;99597.16;5102156;28;20467;-67
2022/12/15 10:58:48;;;;;;;20.03;13.90;;;;;;;4.88;44.63;99599.63;5102674;28;20681;-67
2022/12/15 11:01:16;;;;;;;20.37;14.00;;;;;;;5.09;44.10;99605.03;5102182;28;20474;-68
2022/12/15 11:03:44;;;;;;;17.40;12.77;;;;;;;4.44;44.73;99606.53;5102993;28;20507;-67
2022/12/15 11:06:17;;;;;;;22.83;13.97;;;;;;;4.42;44.90;99601.34;5101736;28;20475;-67
2022/12/15 11:08:46;;;;;;;25.20;15.30;;;;;;;4.92;44.34;99605.50;5083771;28;20546;-68
2022/12/15 11:14:15;;;;;;;21.00;13.13;;;;;;;5.53;42.14;99605.06;5082264;28;20786;-68
2022/12/15 11:16:53;;;;;;;21.60;13.97;;;;;;;3.95;45.04;99600.50;5101137;28;20463;-67
2022/12/15 11:19:30;;;;;;;22.57;16.17;;;;;;;2.49;48.07;99592.44;5101778;28;20479;-67
2022/12/15 11:22:01;;;;;;;19.53;13.40;;;;;;;2.66;48.82;99600.03;5101528;28;20511;-67
2022/12/15 11:24:34;;;;;;;23.17;15.00;;;;;;;3.17;47.46;99605.22;5103135;28;20464;-68
2022/12/15 11:27:06;;;;;;;23.33;14.80;;;;;;;3.87;46.29;99608.16;5101318;28;20534;-68
2022/12/15 11:29:43;;;;;;;21.83;14.33;;;;;;;3.68;46.09;99600.72;5102591;28;20452;-68
2022/12/15 11:32:10;;;;;;;21.10;14.03;;;;;;;3.31;46.05;99604.25;5101704;28;20494;-68
2022/12/15 11:34:39;;;;;;;24.23;13.97;;;;;;;3.11;47.25;99602.22;5102632;28;20424;-68
2022/12/15 11:37:38;;;;;;;17.57;13.90;;;;;;;4.18;45.49;99595.28;5101101;28;20503;-68
2022/12/15 11:40:29;;;;;;;20.13;13.97;;;;;;;3.91;45.47;99594.59;5103094;28;20461;-68
2022/12/15 11:43:05;;;;;;;22.03;13.00;;;;;;;3.65;44.69;99600.97;5099400;28;20486;-68
2022/12/15 11:45:37;;;;;;;19.43;13.33;;;;;;;3.71;45.67;99598.69;5101862;28;20470;-68
2022/12/15 11:48:10;;;;;;;22.03;14.43;;;;;;;3.99;45.57;99596.66;5102640;28;20438;-68
2022/12/15 11:50:42;;;;;;;18.80;12.93;;;;;;;4.87;43.06;99589.97;5100909;28;20475;-69
2022/12/15 11:53:17;;;;;;;21.57;13.77;;;;;;;4.44;43.77;99590.66;5101691;28;20483;-67
2022/12/15 11:55:52;;;;;;;19.47;13.53;;;;;;;5.99;42.08;99590.75;5101777;28;20462;-69
2022/12/15 11:58:49;;;;;;;16.63;12.37;;;;;;;6.80;40.49;99590.94;5102407;28;20446;-68
2022/12/15 12:01:24;;;;;;;21.30;14.90;;;;;;;6.58;39.87;99591.97;5101635;28;20560;-69
2022/12/15 12:04:00;;;;;;;20.30;13.27;;;;;;;4.79;42.68;99584.41;5097829;28;20509;-69
2022/12/15 12:06:33;;;;;;;21.40;13.20;;;;;;;5.11;42.25;99586.38;5101325;28;20479;-69
2022/12/15 12:09:17;;;;;;;18.20;12.60;;;;;;;4.32;44.36;99581.84;5091697;28;21027;-67
2022/12/15 12:11:48;;;;;;;17.60;12.13;;;;;;;4.08;44.66;99585.41;5096441;28;20807;-68
2022/12/15 12:14:23;;;;;;;25.50;13.43;;;;;;;4.41;44.78;99582.94;5101978;28;20456;-68
2022/12/15 12:16:54;;;;;;;17.83;13.10;;;;;;;4.29;44.91;99582.09;5100856;28;20502;-68
2022/12/15 12:19:24;;;;;;;22.87;14.63;;;;;;;3.80;45.76;99581.31;5100766;28;20460;-66
2022/12/15 12:21:56;;;;;;;19.60;13.83;;;;;;;3.86;46.31;99577.38;5101002;28;20467;-66
2022/12/15 12:24:27;;;;;;;21.53;12.80;;;;;;;4.27;45.62;99579.56;5102113;28;20467;-66
2022/12/15 12:26:58;;;;;;;17.17;12.33;;;;;;;5.02;43.55;99582.63;5100132;28;20579;-66
2022/12/15 12:29:30;;;;;;;17.37;11.00;;;;;;;5.04;42.88;99584.19;5101885;28;20467;-66
2022/12/15 12:32:04;;;;;;;17.03;12.63;;;;;;;5.27;43.06;99579.69;5101208;28;20471;-67
2022/12/15 12:34:37;;;;;;;18.43;12.70;;;;;;;5.11;43.06;99579.25;5101476;28;20446;-67
2022/12/15 12:37:13;;;;;;;17.90;12.47;;;;;;;3.76;46.25;99583.34;5100458;28;20495;-66
2022/12/15 12:39:41;;;;;;;21.00;12.07;;;;;;;4.32;45.11;99581.84;5101647;28;20458;-66
2022/12/15 12:42:13;;;;;;;22.30;14.87;;;;;;;3.73;46.49;99575.66;5100758;28;20505;-66
2022/12/15 12:44:40;;;;;;;22.30;13.20;;;;;;;3.14;48.05;99572.91;5101911;28;20503;-67
2022/12/15 12:47:10;;;;;;;20.80;14.17;;;;;;;2.54;49.99;99577.13;5100751;28;20475;-66
2022/12/15 12:49:42;;;;;;;22.70;13.50;;;;;;;1.64;53.05;99585.72;5099713;28;20498;-65
2022/12/15 12:52:19;;;;;;;20.60;13.10;;;;;;;1.31;54.79;99584.31;5100399;28;20463;-65
2022/12/15 12:54:55;;;;;;;20.80;14.63;;;;;;;1.01;56.92;99584.50;5102170;28;20425;-66
2022/12/15 12:57:39;;;;;;;24.03;13.13;;;;;;;0.68;58.40;99574.28;5100620;28;20514;-68
2022/12/15 13:00:15;;;;;;;16.20;13.00;;;;;;;0.72;59.46;99576.63;5084050;28;20452;-68
2022/12/15 13:02:57;;;;;;;21.00;13.87;;;;;;;0.85;59.86;99560.06;5081747;28;20475;-68
2022/12/15 13:05:34;;;;;;;19.60;12.97;;;;;;;0.72;60.07;99566.09;5101456;28;20436;-69
2022/12/15 13:08:39;;;;;;;21.83;14.10;;;;;;;0.45;61.54;99557.25;5100588;28;21003;-68
2022/12/15 13:11:39;;;;;;;21.03;14.60;;;;;;;0.45;62.19;99546.75;5084550;28;20498;-68
2022/12/15 13:14:13;;;;;;;21.77;13.33;;;;;;;0.32;63.03;99549.28;5101012;28;20685;-69
2022/12/15 13:16:40;;;;;;;17.87;13.17;;;;;;;0.25;63.38;99553.22;5100561;28;20497;-68
2022/12/15 13:19:08;;;;;;;21.40;12.57;;;;;;;0.07;63.73;99550.75;5099467;28;20991;-68
2022/12/15 13:21:52;;;;;;;19.30;14.17;;;;;;;0.15;64.02;99550.28;5100637;28;20480;-69
2022/12/15 13:24:26;;;;;;;17.30;12.63;;;;;;;0.18;63.70;99558.00;5101652;28;21289;-68
2022/12/15 13:26:53;;;;;;;21.07;13.10;;;;;;;0.13;63.75;99549.53;5099887;28;20502;-69
2022/12/15 13:29:22;;;;;;;20.70;15.43;;;;;;;0.28;63.73;99556.50;5103968;28;20488;-69
2022/12/15 13:31:50;;;;;;;19.80;14.07;;;;;;;0.18;63.68;99539.59;5097328;28;20474;-68
2022/12/15 13:34:24;;;;;;;20.17;14.23;;;;;;;0.19;63.60;99546.53;5104684;28;20522;-68
2022/12/15 13:37:01;;;;;;;22.83;13.50;;;;;;;0.21;63.86;99541.19;5103975;28;20478;-69
2022/12/15 13:39:56;;;;;;;23.13;13.57;;;;;;;0.16;64.47;99539.69;5103344;28;20478;-67
2022/12/15 13:42:36;;;;;;;18.20;13.20;;;;;;;0.17;64.62;99536.13;5104223;28;21035;-68
2022/12/15 13:45:31;;;;;;;21.10;12.87;;;;;;;0.18;64.84;99529.91;5104741;28;20498;-68
2022/12/15 13:47:59;;;;;;;20.57;13.57;;;;;;;0.24;65.19;99539.22;5101300;28;20455;-68
2022/12/15 13:50:39;;;;;;;21.10;14.30;;;;;;;0.13;65.55;99531.97;5102999;28;20462;-68
2022/12/15 13:53:10;;;;;;;20.43;14.93;;;;;;;0.27;65.49;99533.78;5103567;28;20448;-68
2022/12/15 13:55:39;;;;;;;23.43;14.83;;;;;;;0.22;65.75;99537.63;5103462;28;20486;-68